Time;durP1;ratioP1;P1;durP2;ratioP2;P2;SDS_P1;SDS_P2;PMS_P1;PMS_P2;Temp;Humidity;BMP_temperature;BMP_pressure;BME280_temperature;BME280_humidity;BME280_pressure;Samples;Min_cycle;Max_cycle;Signal;HPM_P1;HPM_P2
2022/10/28 00:01:07;;;;;;;76.93;53.22;;;19.70;84.10;;;;;;4952704;28;90198;-54
2022/10/28 00:03:38;;;;;;;76.95;53.25;;;19.70;84.10;;;;;;4954402;28;90797;-55
2022/10/28 00:06:14;;;;;;;74.87;53.03;;;19.70;84.20;;;;;;4958527;28;91838;-51
2022/10/28 00:08:40;;;;;;;74.88;53.08;;;19.70;84.10;;;;;;4952337;28;90413;-56
2022/10/28 00:11:15;;;;;;;76.93;53.03;;;19.70;84.10;;;;;;4956838;28;90607;-53
2022/10/28 00:13:42;;;;;;;76.40;53.25;;;19.70;84.10;;;;;;4955463;28;91381;-55
2022/10/28 00:16:29;;;;;;;75.32;53.05;;;19.70;84.10;;;;;;4957596;28;90858;-56
2022/10/28 00:18:55;;;;;;;74.30;52.92;;;19.70;84.10;;;;;;4949812;28;91129;-55
2022/10/28 00:21:26;;;;;;;75.35;53.33;;;19.70;84.00;;;;;;4955281;28;93246;-55
2022/10/28 00:23:53;;;;;;;75.55;53.55;;;19.70;84.10;;;;;;4956441;28;89817;-57
2022/10/28 00:26:26;;;;;;;76.10;52.80;;;19.70;84.20;;;;;;4956673;28;90235;-55
2022/10/28 00:28:55;;;;;;;75.60;53.08;;;19.70;84.10;;;;;;4957957;28;89820;-54
2022/10/28 00:31:23;;;;;;;75.63;53.67;;;19.70;84.10;;;;;;4951425;28;90253;-55
2022/10/28 00:33:49;;;;;;;76.25;52.95;;;19.70;84.00;;;;;;4964115;28;90132;-55
2022/10/28 00:36:44;;;;;;;75.80;53.35;;;19.70;84.10;;;;;;4951816;28;90080;-56
2022/10/28 00:39:13;;;;;;;75.88;52.83;;;19.70;84.20;;;;;;4951578;28;92304;-55
2022/10/28 00:41:42;;;;;;;76.50;53.33;;;19.70;84.10;;;;;;4952668;28;89957;-54
2022/10/28 00:44:38;;;;;;;74.43;53.42;;;19.70;84.00;;;;;;4946965;28;90142;-55
2022/10/28 00:47:25;;;;;;;75.45;53.13;;;19.70;84.00;;;;;;4952066;28;91313;-55
2022/10/28 00:49:56;;;;;;;76.38;52.88;;;19.70;84.00;;;;;;4954895;28;92615;-55
2022/10/28 00:52:26;;;;;;;75.10;53.13;;;19.70;84.00;;;;;;4955284;28;89968;-55
2022/10/28 00:54:54;;;;;;;74.28;52.60;;;19.70;84.00;;;;;;4952762;28;90029;-52
2022/10/28 00:57:25;;;;;;;74.93;52.58;;;19.70;84.00;;;;;;4955293;28;89850;-55
2022/10/28 00:59:53;;;;;;;75.55;53.42;;;19.70;84.10;;;;;;4955230;28;89746;-55
2022/10/28 01:02:19;;;;;;;73.88;52.50;;;19.70;84.00;;;;;;4951700;28;92055;-55
2022/10/28 01:04:46;;;;;;;74.95;52.80;;;19.60;84.00;;;;;;4951991;28;91795;-56
2022/10/28 01:07:13;;;;;;;74.93;52.63;;;19.60;84.00;;;;;;4951296;28;90569;-54
2022/10/28 01:09:40;;;;;;;75.68;52.78;;;19.70;84.00;;;;;;4953214;28;89908;-54
2022/10/28 01:12:24;;;;;;;74.13;52.90;;;19.60;84.00;;;;;;4959859;28;90015;-54
2022/10/28 01:15:08;;;;;;;74.88;52.92;;;19.60;84.00;;;;;;4952850;28;90345;-55
2022/10/28 01:18:10;;;;;;;76.65;52.92;;;19.60;84.00;;;;;;4953793;28;90826;-54
2022/10/28 01:21:17;;;;;;;76.90;52.58;;;19.60;84.10;;;;;;4953166;28;91328;-51
2022/10/28 01:24:12;;;;;;;74.70;52.67;;;19.60;84.00;;;;;;4932417;28;89304;-55
2022/10/28 01:26:50;;;;;;;75.15;52.83;;;19.60;84.00;;;;;;4955456;28;90917;-56
2022/10/28 01:29:43;;;;;;;76.43;53.00;;;19.60;84.00;;;;;;4956128;28;90634;-54
2022/10/28 01:32:42;;;;;;;75.80;52.67;;;19.60;84.00;;;;;;4957895;28;91051;-55
2022/10/28 01:35:10;;;;;;;75.40;52.70;;;19.60;84.10;;;;;;4951419;28;90111;-55
2022/10/28 01:37:48;;;;;;;75.18;53.00;;;19.60;84.10;;;;;;4955407;28;91546;-53
2022/10/28 01:40:16;;;;;;;75.28;52.90;;;19.60;84.10;;;;;;4954233;28;90002;-56
2022/10/28 01:42:42;;;;;;;75.35;52.80;;;19.60;84.10;;;;;;4958975;28;92867;-54
2022/10/28 01:45:14;;;;;;;74.88;53.08;;;19.60;84.10;;;;;;4950603;28;92397;-53
2022/10/28 01:48:06;;;;;;;76.45;52.70;;;19.60;84.10;;;;;;4957812;28;90621;-55
2022/10/28 01:50:59;;;;;;;75.78;52.72;;;19.50;84.00;;;;;;4952453;28;90053;-54
2022/10/28 01:53:32;;;;;;;75.47;53.13;;;19.50;83.90;;;;;;4953812;28;90611;-53
2022/10/28 01:56:01;;;;;;;73.90;52.53;;;19.50;84.00;;;;;;4957687;28;89905;-53
2022/10/28 01:58:30;;;;;;;73.93;52.65;;;19.50;83.90;;;;;;4951938;28;91030;-54
2022/10/28 02:00:58;;;;;;;76.13;53.17;;;19.50;83.90;;;;;;4948074;28;90952;-54
2022/10/28 02:03:25;;;;;;;74.85;52.65;;;19.50;83.90;;;;;;4945318;28;89951;-55
2022/10/28 02:05:54;;;;;;;75.07;53.00;;;19.50;84.00;;;;;;4950592;28;90324;-54
2022/10/28 02:08:28;;;;;;;74.32;53.13;;;19.50;83.90;;;;;;4957993;28;90300;-54
2022/10/28 02:11:00;;;;;;;74.72;52.67;;;19.50;83.90;;;;;;4956006;28;90752;-55
2022/10/28 02:14:03;;;;;;;74.75;52.65;;;19.50;84.00;;;;;;4953092;28;89981;-51
2022/10/28 02:16:48;;;;;;;74.65;53.00;;;19.50;84.10;;;;;;4950165;28;91580;-55
2022/10/28 02:19:36;;;;;;;74.88;52.75;;;19.50;84.00;;;;;;4957276;28;91542;-54
2022/10/28 02:22:09;;;;;;;74.40;52.55;;;19.50;84.00;;;;;;4951040;28;92029;-54
2022/10/28 02:24:35;;;;;;;74.50;53.00;;;19.50;84.00;;;;;;4945279;28;91076;-53
2022/10/28 02:27:31;;;;;;;74.15;52.80;;;19.50;83.90;;;;;;4955249;28;90027;-55
2022/10/28 02:30:02;;;;;;;74.18;52.83;;;19.50;83.90;;;;;;4950356;28;90423;-56
2022/10/28 02:32:33;;;;;;;74.55;52.72;;;19.50;83.80;;;;;;4949087;28;90262;-52
2022/10/28 02:35:01;;;;;;;73.60;52.78;;;19.50;83.90;;;;;;4953952;28;91061;-53
2022/10/28 02:37:30;;;;;;;74.70;52.65;;;19.50;83.80;;;;;;4953466;28;90403;-53
2022/10/28 02:40:01;;;;;;;74.53;52.55;;;19.50;83.90;;;;;;4949602;28;91082;-55
2022/10/28 02:42:32;;;;;;;73.73;52.60;;;19.40;83.80;;;;;;4950963;28;89682;-58
2022/10/28 02:45:07;;;;;;;73.88;52.42;;;19.40;83.70;;;;;;4954851;28;92310;-54
2022/10/28 02:47:37;;;;;;;74.72;53.03;;;19.40;83.90;;;;;;4949310;28;89947;-56
2022/10/28 02:50:07;;;;;;;74.45;52.90;;;19.50;83.90;;;;;;4951063;28;92506;-54
2022/10/28 02:52:34;;;;;;;74.65;52.80;;;19.40;83.90;;;;;;4944889;28;91577;-54
2022/10/28 02:55:06;;;;;;;74.43;52.40;;;19.40;83.80;;;;;;4950671;28;90110;-54
2022/10/28 02:57:37;;;;;;;73.47;52.67;;;19.50;83.80;;;;;;4947597;28;90899;-53
2022/10/28 03:00:14;;;;;;;75.72;52.85;;;19.40;83.80;;;;;;4946887;28;90999;-54
2022/10/28 03:02:40;;;;;;;73.65;52.78;;;19.40;83.80;;;;;;4943744;28;90312;-55
2022/10/28 03:05:06;;;;;;;75.55;52.88;;;19.40;83.80;;;;;;4956779;28;89553;-55
2022/10/28 03:07:32;;;;;;;74.20;52.97;;;19.40;83.70;;;;;;4952327;28;92572;-53
2022/10/28 03:09:58;;;;;;;74.15;52.63;;;19.40;83.70;;;;;;4960889;28;90550;-55
2022/10/28 03:12:23;;;;;;;74.20;52.42;;;19.40;83.70;;;;;;4946917;28;90269;-53
2022/10/28 03:14:49;;;;;;;74.40;52.72;;;19.40;83.70;;;;;;4947460;28;94110;-55
2022/10/28 03:17:15;;;;;;;73.65;52.63;;;19.40;83.70;;;;;;4948390;28;89880;-55
2022/10/28 03:19:40;;;;;;;74.60;52.70;;;19.40;83.70;;;;;;4956978;28;90214;-54
2022/10/28 03:22:06;;;;;;;73.80;52.25;;;19.40;83.70;;;;;;4949174;28;90886;-54
2022/10/28 03:24:31;;;;;;;73.80;52.83;;;19.40;83.70;;;;;;4951429;28;89841;-54
2022/10/28 03:26:57;;;;;;;73.93;52.95;;;19.40;83.70;;;;;;4957147;28;89508;-56
2022/10/28 03:29:23;;;;;;;75.28;52.95;;;19.40;83.70;;;;;;4955317;28;90277;-54
2022/10/28 03:31:49;;;;;;;73.88;52.78;;;19.40;83.70;;;;;;4958532;28;90231;-53
2022/10/28 03:34:14;;;;;;;77.97;52.70;;;19.40;83.70;;;;;;4958788;28;91554;-55
2022/10/28 03:36:40;;;;;;;73.85;52.42;;;19.40;83.70;;;;;;4950915;28;90040;-55
2022/10/28 03:39:05;;;;;;;74.60;52.55;;;19.40;83.70;;;;;;4947111;28;91046;-53
2022/10/28 03:41:31;;;;;;;74.28;52.78;;;19.40;83.60;;;;;;4957309;28;90379;-56
2022/10/28 03:43:57;;;;;;;74.63;52.90;;;19.40;83.60;;;;;;4948342;28;90618;-54
2022/10/28 03:46:22;;;;;;;74.05;52.30;;;19.40;83.60;;;;;;4959626;28;90348;-55
2022/10/28 03:48:48;;;;;;;73.68;52.53;;;19.40;83.60;;;;;;4945643;28;91028;-56
2022/10/28 03:51:13;;;;;;;76.97;52.70;;;19.40;83.60;;;;;;4952919;28;89737;-54
2022/10/28 03:53:39;;;;;;;74.38;52.58;;;19.40;83.60;;;;;;4954058;28;90566;-55
2022/10/28 03:56:05;;;;;;;74.25;52.80;;;19.40;83.60;;;;;;4956092;28;91478;-55
2022/10/28 03:58:31;;;;;;;74.50;52.63;;;19.40;83.40;;;;;;4949004;28;91148;-55
2022/10/28 04:00:56;;;;;;;73.93;52.67;;;19.40;83.60;;;;;;4954807;28;91066;-55
2022/10/28 04:03:23;;;;;;;77.07;52.67;;;19.40;83.60;;;;;;4948986;28;92229;-55
2022/10/28 04:05:50;;;;;;;73.65;52.75;;;19.40;83.40;;;;;;4949781;28;90059;-54
2022/10/28 04:08:16;;;;;;;74.07;52.35;;;19.30;83.50;;;;;;4950020;28;90094;-55
2022/10/28 04:10:43;;;;;;;75.35;52.45;;;19.30;83.50;;;;;;4955012;28;89931;-55
2022/10/28 04:13:09;;;;;;;75.85;53.22;;;19.30;84.30;;;;;;4947411;28;89648;-52
2022/10/28 04:15:35;;;;;;;75.13;52.42;;;19.30;84.20;;;;;;4950822;28;90396;-55
2022/10/28 04:18:02;;;;;;;76.10;52.83;;;19.30;83.50;;;;;;4959419;28;91805;-52
2022/10/28 04:20:28;;;;;;;75.88;52.85;;;19.30;83.40;;;;;;4954469;28;93789;-54
2022/10/28 04:22:54;;;;;;;74.82;52.97;;;19.30;83.40;;;;;;4956945;28;89655;-53
2022/10/28 04:25:21;;;;;;;73.85;52.28;;;19.30;83.40;;;;;;4949984;28;90201;-55
2022/10/28 04:27:47;;;;;;;73.80;52.78;;;19.30;83.50;;;;;;4955501;28;92238;-54
2022/10/28 04:30:13;;;;;;;73.47;52.35;;;19.30;83.40;;;;;;4955749;28;90799;-55
2022/10/28 04:32:40;;;;;;;74.90;52.58;;;19.30;83.50;;;;;;4952570;28;90244;-53
2022/10/28 04:35:06;;;;;;;75.78;52.88;;;19.30;83.50;;;;;;4957082;28;90221;-54
2022/10/28 04:37:31;;;;;;;73.55;52.35;;;19.30;83.40;;;;;;4957808;28;90364;-57
2022/10/28 04:39:57;;;;;;;74.32;52.47;;;19.30;83.50;;;;;;4952348;28;90589;-55
2022/10/28 04:42:23;;;;;;;73.63;52.42;;;19.30;83.50;;;;;;4957277;28;92952;-56
2022/10/28 04:44:48;;;;;;;76.10;52.95;;;19.30;83.40;;;;;;4955776;28;90184;-53
2022/10/28 04:47:15;;;;;;;75.82;52.28;;;19.30;83.40;;;;;;4946181;28;92143;-55
2022/10/28 04:49:40;;;;;;;74.25;52.58;;;19.30;83.40;;;;;;4947037;28;90506;-55
2022/10/28 04:52:06;;;;;;;73.28;52.50;;;19.30;83.40;;;;;;4950851;28;92892;-54
2022/10/28 04:54:32;;;;;;;73.95;52.20;;;19.30;83.40;;;;;;4950804;28;91786;-55
2022/10/28 04:56:57;;;;;;;74.30;52.45;;;19.30;83.50;;;;;;4966264;28;90727;-55
2022/10/28 04:59:23;;;;;;;74.50;52.70;;;19.30;83.40;;;;;;4961466;28;91244;-57
2022/10/28 05:01:49;;;;;;;74.72;52.42;;;19.20;83.40;;;;;;4950947;28;90688;-52
2022/10/28 05:04:14;;;;;;;74.75;52.42;;;19.20;83.20;;;;;;4956490;28;89784;-53
2022/10/28 05:06:40;;;;;;;74.90;52.75;;;19.20;83.30;;;;;;4955074;28;91538;-56
2022/10/28 05:09:05;;;;;;;74.63;52.20;;;19.20;83.30;;;;;;4952978;28;89616;-55
2022/10/28 05:11:31;;;;;;;74.80;52.60;;;19.30;83.40;;;;;;4954830;28;91146;-54
2022/10/28 05:13:57;;;;;;;75.03;52.70;;;19.20;83.20;;;;;;4954532;28;90931;-55
2022/10/28 05:16:22;;;;;;;73.78;52.53;;;19.20;83.20;;;;;;4954071;28;91101;-55
2022/10/28 05:18:48;;;;;;;76.20;52.55;;;19.20;83.30;;;;;;4945077;28;89892;-54
2022/10/28 05:21:14;;;;;;;75.35;52.70;;;19.20;83.20;;;;;;4946350;28;91921;-54
2022/10/28 05:23:39;;;;;;;74.32;52.75;;;19.20;83.30;;;;;;4958577;28;90920;-55
2022/10/28 05:26:05;;;;;;;76.43;52.42;;;19.20;83.30;;;;;;4951835;28;91603;-55
2022/10/28 05:28:31;;;;;;;77.07;52.25;;;19.30;83.60;;;;;;4955235;28;90155;-54
2022/10/28 05:30:56;;;;;;;78.30;53.03;;;19.20;83.70;;;;;;4951494;28;90340;-56
2022/10/28 05:33:22;;;;;;;75.90;52.10;;;19.30;83.90;;;;;;4966787;28;89303;-58
2022/10/28 05:35:47;;;;;;;73.50;52.22;;;19.30;84.10;;;;;;4963025;28;91181;-55
2022/10/28 05:38:13;;;;;;;75.45;52.47;;;19.30;84.00;;;;;;4956369;28;90336;-54
2022/10/28 05:40:39;;;;;;;76.07;52.78;;;19.30;84.00;;;;;;4958193;28;90893;-55
2022/10/28 05:43:05;;;;;;;74.47;52.15;;;19.30;83.90;;;;;;4955395;28;95213;-55
2022/10/28 05:45:31;;;;;;;73.60;52.58;;;19.30;83.80;;;;;;4956448;28;90821;-53
2022/10/28 05:47:56;;;;;;;74.15;52.13;;;19.30;83.90;;;;;;4950485;28;90650;-55
2022/10/28 05:50:22;;;;;;;77.72;52.53;;;19.30;83.80;;;;;;4951371;28;90452;-55
2022/10/28 05:52:53;;;;;;;74.30;52.67;;;19.30;83.70;;;;;;4954554;28;90127;-55
2022/10/28 05:55:21;;;;;;;74.07;52.63;;;19.30;83.70;;;;;;4952682;28;90515;-55
2022/10/28 05:57:47;;;;;;;77.70;52.42;;;19.30;83.80;;;;;;4953640;28;90680;-55
2022/10/28 06:00:14;;;;;;;73.78;52.58;;;19.30;83.80;;;;;;4952589;28;90870;-56
2022/10/28 06:02:41;;;;;;;75.72;53.03;;;19.20;83.80;;;;;;4950226;28;91405;-56
2022/10/28 06:05:08;;;;;;;75.18;52.38;;;19.30;83.70;;;;;;4948788;28;92261;-55
2022/10/28 06:07:33;;;;;;;74.82;52.53;;;19.30;83.70;;;;;;4953291;28;93929;-55
2022/10/28 06:10:00;;;;;;;73.72;52.55;;;19.30;83.70;;;;;;4953377;28;91863;-54
2022/10/28 06:12:26;;;;;;;77.20;52.92;;;19.20;83.60;;;;;;4952041;28;90355;-55
2022/10/28 06:14:51;;;;;;;73.45;52.47;;;19.30;83.60;;;;;;4961461;28;89651;-56
2022/10/28 06:17:17;;;;;;;74.78;52.33;;;19.20;83.40;;;;;;4956540;28;92920;-54
2022/10/28 06:19:42;;;;;;;75.63;52.50;;;19.20;83.40;;;;;;4949450;28;90123;-56
2022/10/28 06:22:08;;;;;;;74.97;52.88;;;19.20;83.30;;;;;;4946643;28;89288;-54
2022/10/28 06:24:34;;;;;;;75.07;52.53;;;19.20;83.30;;;;;;4955647;28;90014;-54
2022/10/28 06:26:59;;;;;;;76.97;52.67;;;19.20;83.30;;;;;;4948995;28;92642;-55
2022/10/28 06:29:25;;;;;;;74.30;52.45;;;19.20;83.20;;;;;;4960346;28;91080;-54
2022/10/28 06:31:51;;;;;;;75.85;52.75;;;19.20;83.20;;;;;;4949269;28;92702;-53
2022/10/28 06:34:16;;;;;;;74.78;52.40;;;19.20;83.10;;;;;;4948793;28;90480;-55
2022/10/28 06:36:42;;;;;;;75.53;52.72;;;19.20;83.30;;;;;;4948919;28;91556;-55
2022/10/28 06:39:08;;;;;;;75.22;52.70;;;19.20;83.30;;;;;;4959814;28;90370;-55
2022/10/28 06:41:34;;;;;;;77.85;52.78;;;19.20;83.30;;;;;;4959813;28;89993;-52
2022/10/28 06:43:59;;;;;;;75.15;52.15;;;19.20;83.30;;;;;;4957979;28;89623;-54
2022/10/28 06:46:25;;;;;;;76.22;52.22;;;19.20;83.30;;;;;;4948941;28;89717;-54
2022/10/28 06:48:53;;;;;;;73.45;52.22;;;19.20;83.30;;;;;;4952388;28;90245;-55
2022/10/28 06:51:19;;;;;;;73.43;52.60;;;19.20;83.30;;;;;;4942841;28;90180;-55
2022/10/28 06:53:49;;;;;;;77.45;52.80;;;19.20;83.20;;;;;;4954235;28;91213;-55
2022/10/28 06:56:14;;;;;;;75.80;52.78;;;19.20;83.10;;;;;;4949047;28;91229;-56
2022/10/28 06:58:41;;;;;;;73.05;52.03;;;19.20;83.10;;;;;;4951686;28;89801;-55
2022/10/28 07:01:07;;;;;;;72.95;52.20;;;19.20;83.10;;;;;;4954226;28;90082;-56
2022/10/28 07:03:32;;;;;;;74.25;52.42;;;19.20;83.20;;;;;;4950444;28;90083;-54
2022/10/28 07:05:59;;;;;;;74.18;52.60;;;19.20;83.20;;;;;;4953846;28;91094;-54
2022/10/28 07:08:26;;;;;;;73.85;52.42;;;19.20;83.10;;;;;;4949266;28;89897;-53
2022/10/28 07:10:54;;;;;;;73.82;52.53;;;19.20;83.20;;;;;;4945259;28;89299;-53
2022/10/28 07:13:19;;;;;;;74.28;52.92;;;19.20;83.40;;;;;;4949770;28;94815;-56
2022/10/28 07:15:53;;;;;;;73.65;52.55;;;19.20;83.50;;;;;;4956075;28;90289;-54
2022/10/28 07:18:20;;;;;;;74.55;52.72;;;19.20;83.40;;;;;;4943352;28;90904;-54
2022/10/28 07:20:46;;;;;;;75.65;52.60;;;19.20;83.40;;;;;;4951174;28;92003;-55
2022/10/28 07:23:11;;;;;;;77.60;52.70;;;19.20;83.40;;;;;;4956649;28;92442;-53
2022/10/28 07:25:37;;;;;;;76.68;52.75;;;19.20;83.40;;;;;;4944058;28;90190;-52
2022/10/28 07:28:03;;;;;;;82.00;53.15;;;19.20;83.40;;;;;;4952038;28;91276;-55
2022/10/28 07:30:30;;;;;;;80.05;53.33;;;19.20;83.40;;;;;;4954021;28;90571;-56
2022/10/28 07:32:59;;;;;;;75.72;52.92;;;19.20;83.40;;;;;;4959000;28;90353;-56
2022/10/28 07:35:29;;;;;;;78.10;53.30;;;19.20;83.50;;;;;;4954494;28;89268;-54
2022/10/28 07:37:55;;;;;;;75.93;53.58;;;19.20;83.40;;;;;;4954549;28;90260;-55
2022/10/28 07:40:21;;;;;;;76.53;53.47;;;19.20;83.30;;;;;;4950460;28;90592;-55
2022/10/28 07:42:47;;;;;;;77.38;52.90;;;19.20;83.70;;;;;;4948801;28;91721;-53
2022/10/28 07:45:13;;;;;;;81.32;53.75;;;19.20;83.40;;;;;;4952484;28;91878;-53
2022/10/28 07:47:39;;;;;;;78.40;53.83;;;19.20;83.40;;;;;;4952897;28;90070;-53
2022/10/28 07:50:06;;;;;;;75.47;53.47;;;19.20;83.20;;;;;;4955453;28;90028;-54
2022/10/28 07:52:33;;;;;;;77.40;53.00;;;19.20;83.10;;;;;;4951934;28;92237;-56
2022/10/28 07:54:59;;;;;;;79.40;53.58;;;19.20;83.00;;;;;;4957042;28;97499;-55
2022/10/28 07:57:24;;;;;;;75.15;53.08;;;19.20;83.00;;;;;;4948937;28;90505;-54
2022/10/28 07:59:50;;;;;;;81.20;54.08;;;19.20;82.80;;;;;;4949730;28;95707;-55
2022/10/28 08:02:18;;;;;;;87.07;54.58;;;19.20;82.80;;;;;;4958327;28;97067;-54
2022/10/28 08:04:44;;;;;;;90.13;54.60;;;19.30;82.90;;;;;;4953896;28;90466;-55
2022/10/28 08:07:10;;;;;;;94.88;55.90;;;19.30;83.10;;;;;;4943133;28;90839;-51
2022/10/28 08:09:36;;;;;;;96.28;56.65;;;19.30;83.10;;;;;;4942113;28;90979;-52
2022/10/28 08:12:02;;;;;;;90.50;56.38;;;19.30;83.20;;;;;;4945981;28;91275;-54
2022/10/28 08:14:27;;;;;;;93.78;56.30;;;19.30;83.10;;;;;;4948469;28;91575;-52
2022/10/28 08:16:53;;;;;;;105.47;57.35;;;19.30;82.90;;;;;;4946066;28;90847;-55
2022/10/28 08:19:18;;;;;;;99.57;57.22;;;19.30;82.80;;;;;;4949460;28;89971;-53
2022/10/28 08:21:45;;;;;;;95.57;56.22;;;19.30;82.80;;;;;;4955349;28;90155;-52
2022/10/28 08:24:11;;;;;;;99.32;57.00;;;19.30;83.30;;;;;;4954071;28;90037;-54
2022/10/28 08:26:36;;;;;;;97.28;56.70;;;19.40;83.50;;;;;;4955551;28;90019;-57
2022/10/28 08:29:02;;;;;;;101.95;57.00;;;19.40;83.40;;;;;;4949891;28;89705;-54
2022/10/28 08:31:28;;;;;;;96.50;56.85;;;19.40;83.30;;;;;;4945459;28;93267;-57
2022/10/28 08:33:53;;;;;;;97.80;56.08;;;19.40;83.30;;;;;;4941587;28;91075;-56
2022/10/28 08:36:19;;;;;;;93.80;56.50;;;19.40;83.10;;;;;;4944380;28;89969;-57
2022/10/28 08:38:45;;;;;;;94.22;56.78;;;19.40;84.00;;;;;;4951634;28;89771;-56
2022/10/28 08:41:29;;;;;;;95.32;56.42;;;19.40;83.90;;;;;;4950304;28;90257;-58
2022/10/28 08:44:19;;;;;;;88.88;56.10;;;19.50;84.90;;;;;;4945778;28;91711;-62
2022/10/28 08:47:06;;;;;;;95.03;56.38;;;19.50;84.60;;;;;;4947643;28;90648;-57
2022/10/28 08:49:35;;;;;;;98.72;56.72;;;19.50;84.60;;;;;;4946496;28;89324;-56
2022/10/28 08:52:39;;;;;;;95.80;56.47;;;19.60;85.40;;;;;;4947793;28;92151;-57
2022/10/28 08:55:12;;;;;;;95.70;56.53;;;19.60;85.70;;;;;;4945076;28;91094;-56
2022/10/28 08:57:42;;;;;;;97.68;56.65;;;19.60;85.80;;;;;;4939462;28;91992;-55
2022/10/28 09:00:21;;;;;;;94.45;56.22;;;19.60;86.10;;;;;;4946777;28;92254;-56
2022/10/28 09:02:58;;;;;;;90.60;56.10;;;19.60;86.40;;;;;;4944914;28;94546;-58
2022/10/28 09:05:25;;;;;;;91.07;55.28;;;19.60;85.80;;;;;;4943290;28;92349;-56
2022/10/28 09:07:52;;;;;;;82.72;55.33;;;19.60;85.10;;;;;;4957022;28;89989;-56
2022/10/28 09:10:44;;;;;;;85.75;55.50;;;19.60;84.20;;;;;;4939778;28;96107;-57
2022/10/28 09:13:41;;;;;;;89.05;55.50;;;19.60;83.70;;;;;;4932965;28;91250;-57
2022/10/28 09:16:38;;;;;;;89.97;55.63;;;19.70;83.60;;;;;;4916609;28;90920;-57
2022/10/28 09:19:29;;;;;;;92.53;55.28;;;19.70;83.20;;;;;;4960614;28;89940;-57
2022/10/28 09:22:16;;;;;;;85.63;55.42;;;19.70;83.60;;;;;;4955821;28;89684;-58
2022/10/28 09:24:49;;;;;;;87.18;55.35;;;19.70;83.60;;;;;;4951115;28;91323;-56
2022/10/28 09:27:29;;;;;;;86.47;54.70;;;19.70;83.60;;;;;;4957519;28;91422;-56
2022/10/28 09:30:21;;;;;;;87.20;55.13;;;19.70;83.60;;;;;;4951662;28;90885;-57
2022/10/28 09:32:50;;;;;;;;;;;19.70;83.40;;;;;;4955199;28;90395;-57
2022/10/28 09:35:20;;;;;;;89.40;54.88;;;19.70;83.10;;;;;;4943726;28;91514;-55
2022/10/28 09:38:01;;;;;;;87.30;55.08;;;19.70;83.10;;;;;;4957011;28;90766;-58
2022/10/28 09:40:30;;;;;;;87.55;55.10;;;19.70;82.80;;;;;;4958574;28;90164;-57
2022/10/28 09:43:04;;;;;;;84.72;55.45;;;19.70;83.00;;;;;;4958934;28;89044;-57
2022/10/28 09:45:32;;;;;;;85.85;54.88;;;19.70;83.10;;;;;;4955458;28;90405;-57
2022/10/28 09:48:05;;;;;;;89.57;55.17;;;19.70;83.10;;;;;;4952930;28;90852;-57
2022/10/28 09:50:32;;;;;;;85.85;54.47;;;19.80;82.90;;;;;;4955413;28;91014;-57
2022/10/28 09:53:15;;;;;;;89.15;55.05;;;19.70;82.40;;;;;;4952988;28;89985;-56
2022/10/28 09:55:41;;;;;;;90.20;55.10;;;19.80;82.50;;;;;;4951581;28;89668;-56
2022/10/28 09:58:10;;;;;;;88.72;55.10;;;19.80;82.60;;;;;;4952496;28;91413;-57
2022/10/28 10:00:36;;;;;;;90.32;55.33;;;19.80;82.60;;;;;;4945435;28;90192;-55
2022/10/28 10:03:02;;;;;;;84.00;54.83;;;19.80;82.30;;;;;;4959122;28;93940;-56
2022/10/28 10:05:31;;;;;;;83.55;54.75;;;19.90;82.20;;;;;;4947712;28;90315;-57
2022/10/28 10:08:09;;;;;;;89.35;55.25;;;19.90;81.70;;;;;;4953113;28;89957;-58
2022/10/28 10:11:00;;;;;;;81.80;54.53;;;19.90;82.00;;;;;;4948396;28;90571;-55
2022/10/28 10:13:35;;;;;;;89.57;54.95;;;20.10;82.70;;;;;;4953993;28;89898;-55
2022/10/28 10:16:28;;;;;;;87.18;54.28;;;20.10;81.80;;;;;;4951561;28;91337;-57
2022/10/28 10:18:58;;;;;;;84.00;54.42;;;20.10;81.40;;;;;;4954459;28;90968;-55
2022/10/28 10:21:51;;;;;;;89.72;54.85;;;20.10;81.70;;;;;;4955833;28;91506;-54
2022/10/28 10:24:35;;;;;;;83.65;54.53;;;20.00;81.30;;;;;;4936803;28;90842;-54
2022/10/28 10:27:10;;;;;;;82.38;54.72;;;20.00;81.00;;;;;;4936307;28;92045;-55
2022/10/28 10:29:42;;;;;;;84.30;54.88;;;20.00;81.10;;;;;;4932640;28;90769;-55
2022/10/28 10:32:21;;;;;;;84.00;54.65;;;20.00;80.70;;;;;;4938727;28;90268;-53
2022/10/28 10:35:12;;;;;;;88.00;54.47;;;20.00;80.90;;;;;;4944222;28;89235;-55
2022/10/28 10:37:43;;;;;;;85.15;54.60;;;20.00;80.90;;;;;;4944784;28;90215;-53
2022/10/28 10:40:16;;;;;;;86.72;54.67;;;20.00;81.30;;;;;;4946452;28;92865;-54
2022/10/28 10:42:41;;;;;;;86.88;54.75;;;20.00;80.80;;;;;;4943582;28;95542;-52
2022/10/28 10:45:27;;;;;;;83.25;54.45;;;20.10;80.40;;;;;;4941838;28;90866;-53
2022/10/28 10:48:25;;;;;;;85.05;55.45;;;20.10;81.10;;;;;;4940704;28;93338;-53
2022/10/28 10:50:52;;;;;;;83.88;54.53;;;20.10;80.30;;;;;;4934280;28;91305;-53
2022/10/28 10:53:29;;;;;;;89.97;54.75;;;20.10;80.50;;;;;;4938478;28;91642;-53
2022/10/28 10:56:04;;;;;;;86.70;55.10;;;20.10;81.10;;;;;;4933707;28;90080;-51
2022/10/28 10:58:33;;;;;;;89.15;55.35;;;20.20;81.60;;;;;;4932141;28;90118;-55
2022/10/28 11:01:03;;;;;;;83.65;55.40;;;20.30;83.00;;;;;;4938386;28;90744;-53
2022/10/28 11:03:58;;;;;;;83.40;55.30;;;20.30;82.50;;;;;;4942925;28;90241;-54
2022/10/28 11:06:28;;;;;;;83.28;54.92;;;20.30;82.50;;;;;;4953929;28;89808;-54
2022/10/28 11:09:24;;;;;;;90.55;55.13;;;20.30;82.60;;;;;;4948893;28;93101;-54
2022/10/28 11:11:54;;;;;;;82.90;54.92;;;20.40;82.60;;;;;;4946340;28;90932;-54
2022/10/28 11:14:28;;;;;;;83.47;55.17;;;20.40;82.70;;;;;;4946614;28;90012;-54
2022/10/28 11:16:56;;;;;;;83.28;55.15;;;20.40;82.80;;;;;;4941598;28;90190;-53
2022/10/28 11:19:31;;;;;;;83.13;54.80;;;20.40;82.80;;;;;;4939687;28;90522;-53
2022/10/28 11:22:35;;;;;;;82.25;54.67;;;20.40;82.80;;;;;;4939605;28;89843;-55
2022/10/28 11:25:22;;;;;;;82.10;54.42;;;20.40;83.10;;;;;;4939982;28;90322;-53
2022/10/28 11:28:25;;;;;;;83.32;54.63;;;20.40;83.10;;;;;;4947584;28;91670;-50
2022/10/28 11:31:02;;;;;;;83.18;55.05;;;20.40;83.70;;;;;;4951695;28;90329;-55
2022/10/28 11:33:47;;;;;;;84.15;54.53;;;20.40;85.10;;;;;;4943701;28;95365;-56
2022/10/28 11:36:56;;;;;;;89.28;55.60;;;20.40;85.90;;;;;;4939933;28;92273;-55
2022/10/28 11:39:29;;;;;;;84.97;54.95;;;20.50;86.70;;;;;;4951398;28;91008;-54
2022/10/28 11:42:13;;;;;;;86.82;55.08;;;20.50;87.30;;;;;;4950730;28;92060;-55
2022/10/28 11:44:58;;;;;;;81.47;55.08;;;20.50;87.70;;;;;;4953963;28;94659;-54
2022/10/28 11:47:32;;;;;;;83.35;54.40;;;20.50;88.20;;;;;;4951292;28;89951;-55
2022/10/28 11:50:03;;;;;;;87.30;55.33;;;20.50;87.80;;;;;;4958505;28;93526;-54
2022/10/28 11:52:29;;;;;;;;;;;20.50;87.60;;;;;;4951815;28;89929;-55
2022/10/28 11:55:00;;;;;;;80.47;55.08;;;20.60;87.50;;;;;;4951494;28;90952;-55
2022/10/28 11:58:04;;;;;;;85.20;55.05;;;20.50;87.40;;;;;;4949083;28;89568;-53
2022/10/28 12:01:02;;;;;;;83.15;54.53;;;20.60;87.90;;;;;;4951681;28;90284;-54
2022/10/28 12:03:53;;;;;;;82.30;54.75;;;20.50;88.20;;;;;;4939277;28;93513;-55
2022/10/28 12:06:47;;;;;;;79.97;54.42;;;20.60;88.60;;;;;;4954342;28;89932;-53
2022/10/28 12:09:43;;;;;;;83.10;55.10;;;20.50;88.60;;;;;;4948453;28;90298;-54
2022/10/28 12:12:54;;;;;;;80.72;55.13;;;20.60;89.10;;;;;;4945933;28;90028;-53
2022/10/28 12:15:44;;;;;;;84.53;54.80;;;20.60;89.00;;;;;;4952401;28;90853;-54
2022/10/28 12:18:35;;;;;;;82.85;55.08;;;20.60;89.20;;;;;;4955664;28;91221;-54
2022/10/28 12:21:15;;;;;;;82.07;54.47;;;20.60;89.30;;;;;;4944358;28;90240;-52
2022/10/28 12:23:42;;;;;;;82.55;55.08;;;20.60;89.40;;;;;;4943772;28;89243;-49
2022/10/28 12:26:14;;;;;;;81.55;54.35;;;20.60;89.30;;;;;;4943733;28;91234;-52
2022/10/28 12:28:44;;;;;;;81.60;55.38;;;20.70;89.40;;;;;;4947290;28;89972;-53
2022/10/28 12:31:31;;;;;;;83.57;54.70;;;20.70;89.20;;;;;;4954546;28;91807;-51
2022/10/28 12:34:00;;;;;;;83.20;55.33;;;20.70;89.10;;;;;;4949427;28;90550;-53
2022/10/28 12:36:46;;;;;;;85.70;55.25;;;20.70;89.20;;;;;;4949400;28;91044;-53
2022/10/28 12:39:23;;;;;;;81.80;55.00;;;20.70;89.20;;;;;;4950096;28;89767;-52
2022/10/28 12:42:38;;;;;;;85.35;55.03;;;20.70;89.20;;;;;;4950293;28;90369;-54
2022/10/28 12:45:09;;;;;;;83.43;55.08;;;20.70;89.00;;;;;;4943075;28;90144;-52
2022/10/28 12:47:55;;;;;;;;;;;20.80;89.00;;;;;;4950415;28;90840;-50
2022/10/28 12:50:23;;;;;;;79.70;54.33;;;20.70;88.80;;;;;;4950669;28;89466;-52
2022/10/28 12:53:01;;;;;;;83.88;55.15;;;20.80;88.80;;;;;;4950740;28;89791;-50
2022/10/28 12:55:37;;;;;;;81.05;54.85;;;20.80;88.70;;;;;;4947717;28;91795;-49